sensor_id;sensor_type;location;lat;lon;timestamp;pressure;altitude;pressure_sealevel;temperature;humidity
48027;BME280;50714;49.208;5.364;2022-08-04T00:05:05;99138.84;;;25.15;47.91
48027;BME280;50714;49.208;5.364;2022-08-04T00:15:09;99139.13;;;25.14;46.07
48027;BME280;50714;49.208;5.364;2022-08-04T00:25:10;99143.31;;;25.11;45.44
48027;BME280;50714;49.208;5.364;2022-08-04T00:35:12;99135.63;;;24.81;46.84
48027;BME280;50714;49.208;5.364;2022-08-04T01:06:08;99125.63;;;24.06;48.56
48027;BME280;50714;49.208;5.364;2022-08-04T01:16:15;99134.72;;;23.88;48.00
48027;BME280;50714;49.208;5.364;2022-08-04T01:36:33;99114.81;;;23.59;48.42
48027;BME280;50714;49.208;5.364;2022-08-04T01:46:34;99117.13;;;23.46;48.27
48027;BME280;50714;49.208;5.364;2022-08-04T01:56:34;99106.16;;;23.65;48.40
48027;BME280;50714;49.208;5.364;2022-08-04T02:17:27;99096.19;;;23.08;49.53
48027;BME280;50714;49.208;5.364;2022-08-04T02:27:33;99084.19;;;22.99;49.14
48027;BME280;50714;49.208;5.364;2022-08-04T02:37:46;99082.75;;;22.83;50.87
48027;BME280;50714;49.208;5.364;2022-08-04T02:47:49;99081.13;;;22.82;49.61
48027;BME280;50714;49.208;5.364;2022-08-04T02:57:53;99081.97;;;23.01;50.05
48027;BME280;50714;49.208;5.364;2022-08-04T05:22:55;99100.91;;;22.55;53.94
48027;BME280;50714;49.208;5.364;2022-08-04T05:32:54;99119.34;;;22.83;53.76
48027;BME280;50714;49.208;5.364;2022-08-04T05:42:57;99115.28;;;22.99;52.79
48027;BME280;50714;49.208;5.364;2022-08-04T05:52:59;99113.75;;;23.12;52.85
48027;BME280;50714;49.208;5.364;2022-08-04T06:03:00;99110.56;;;23.24;52.74
48027;BME280;50714;49.208;5.364;2022-08-04T06:13:05;99100.16;;;23.39;53.10
48027;BME280;50714;49.208;5.364;2022-08-04T06:23:09;99107.16;;;23.88;52.46
48027;BME280;50714;49.208;5.364;2022-08-04T06:33:10;99112.50;;;24.50;52.38
48027;BME280;50714;49.208;5.364;2022-08-04T06:43:27;99107.31;;;25.17;51.35
48027;BME280;50714;49.208;5.364;2022-08-04T06:53:28;99107.03;;;25.68;50.84
48027;BME280;50714;49.208;5.364;2022-08-04T07:03:29;99111.38;;;26.27;50.48
48027;BME280;50714;49.208;5.364;2022-08-04T07:13:31;99122.31;;;26.94;49.06
48027;BME280;50714;49.208;5.364;2022-08-04T07:23:31;99119.84;;;27.24;48.67
48027;BME280;50714;49.208;5.364;2022-08-04T07:33:32;99127.28;;;27.63;47.83
48027;BME280;50714;49.208;5.364;2022-08-04T07:43:35;99131.81;;;28.19;47.31
48027;BME280;50714;49.208;5.364;2022-08-04T07:53:36;99140.34;;;28.95;46.31
48027;BME280;50714;49.208;5.364;2022-08-04T08:03:36;99130.63;;;29.39;45.52
48027;BME280;50714;49.208;5.364;2022-08-04T08:13:38;99130.72;;;30.35;44.11
48027;BME280;50714;49.208;5.364;2022-08-04T08:23:39;99135.06;;;31.50;42.21
48027;BME280;50714;49.208;5.364;2022-08-04T08:33:40;99130.91;;;33.28;40.86
48027;BME280;50714;49.208;5.364;2022-08-04T09:14:29;99140.22;;;41.20;29.81
48027;BME280;50714;49.208;5.364;2022-08-04T09:24:59;99127.69;;;39.43;24.22
48027;BME280;50714;49.208;5.364;2022-08-04T09:45:26;99119.09;;;39.96;24.37
48027;BME280;50714;49.208;5.364;2022-08-04T10:26:51;99118.38;;;34.72;31.00
48027;BME280;50714;49.208;5.364;2022-08-04T10:37:18;99140.66;;;34.27;33.81
48027;BME280;50714;49.208;5.364;2022-08-04T10:47:23;99142.31;;;35.12;31.76
48027;BME280;50714;49.208;5.364;2022-08-04T10:57:52;99148.69;;;34.28;31.12
48027;BME280;50714;49.208;5.364;2022-08-04T11:08:04;99152.28;;;34.44;32.01
48027;BME280;50714;49.208;5.364;2022-08-04T11:18:15;99141.25;;;34.55;31.49
48027;BME280;50714;49.208;5.364;2022-08-04T11:39:14;99132.88;;;34.36;31.53
48027;BME280;50714;49.208;5.364;2022-08-04T11:49:28;99132.97;;;34.81;30.31
48027;BME280;50714;49.208;5.364;2022-08-04T11:59:32;99127.72;;;35.78;30.58
48027;BME280;50714;49.208;5.364;2022-08-04T12:10:08;99133.41;;;36.49;27.47
48027;BME280;50714;49.208;5.364;2022-08-04T12:20:16;99117.06;;;36.58;27.36
48027;BME280;50714;49.208;5.364;2022-08-04T12:30:18;99111.22;;;36.40;27.47
48027;BME280;50714;49.208;5.364;2022-08-04T12:40:24;99106.03;;;36.09;26.89
48027;BME280;50714;49.208;5.364;2022-08-04T12:50:26;99103.81;;;35.92;28.45
48027;BME280;50714;49.208;5.364;2022-08-04T13:00:32;99110.50;;;35.80;28.14
48027;BME280;50714;49.208;5.364;2022-08-04T13:10:37;99099.69;;;35.55;27.78
48027;BME280;50714;49.208;5.364;2022-08-04T13:20:39;99090.41;;;35.25;28.18
48027;BME280;50714;49.208;5.364;2022-08-04T13:30:43;99074.00;;;35.01;28.09
48027;BME280;50714;49.208;5.364;2022-08-04T13:40:45;99051.09;;;34.72;28.46
48027;BME280;50714;49.208;5.364;2022-08-04T13:50:46;99057.63;;;34.57;28.91
48027;BME280;50714;49.208;5.364;2022-08-04T14:10:55;99080.84;;;34.58;28.60
48027;BME280;50714;49.208;5.364;2022-08-04T14:31:11;99071.19;;;34.32;29.42
48027;BME280;50714;49.208;5.364;2022-08-04T14:41:13;99076.03;;;34.16;29.51
48027;BME280;50714;49.208;5.364;2022-08-04T14:51:14;99070.22;;;34.05;30.34
48027;BME280;50714;49.208;5.364;2022-08-04T15:01:14;99056.66;;;34.07;30.70
48027;BME280;50714;49.208;5.364;2022-08-04T15:11:19;99056.16;;;34.02;30.65
48027;BME280;50714;49.208;5.364;2022-08-04T15:21:21;99054.69;;;33.69;30.80
48027;BME280;50714;49.208;5.364;2022-08-04T15:31:22;99049.34;;;33.45;30.85
48027;BME280;50714;49.208;5.364;2022-08-04T15:41:36;99040.56;;;33.27;31.19
48027;BME280;50714;49.208;5.364;2022-08-04T15:51:37;99048.81;;;33.04;31.33
48027;BME280;50714;49.208;5.364;2022-08-04T16:01:39;99033.50;;;32.82;31.80
48027;BME280;50714;49.208;5.364;2022-08-04T16:11:39;99035.31;;;32.75;31.73
48027;BME280;50714;49.208;5.364;2022-08-04T16:21:49;99036.56;;;32.77;32.21
48027;BME280;50714;49.208;5.364;2022-08-04T16:42:32;99035.81;;;32.49;32.03
48027;BME280;50714;49.208;5.364;2022-08-04T16:52:41;99033.09;;;32.37;32.58
48027;BME280;50714;49.208;5.364;2022-08-04T17:02:42;99028.66;;;32.20;32.65
48027;BME280;50714;49.208;5.364;2022-08-04T17:12:44;99031.88;;;32.06;32.60
48027;BME280;50714;49.208;5.364;2022-08-04T17:22:44;99018.31;;;31.93;32.58
48027;BME280;50714;49.208;5.364;2022-08-04T17:32:45;99029.22;;;31.82;32.97
48027;BME280;50714;49.208;5.364;2022-08-04T17:42:45;99037.25;;;31.71;33.10
48027;BME280;50714;49.208;5.364;2022-08-04T17:52:57;99041.25;;;31.58;33.48
48027;BME280;50714;49.208;5.364;2022-08-04T18:02:58;99048.00;;;31.45;33.10
48027;BME280;50714;49.208;5.364;2022-08-04T18:13:05;99058.84;;;31.34;33.76
48027;BME280;50714;49.208;5.364;2022-08-04T18:23:08;99072.47;;;31.24;34.04
48027;BME280;50714;49.208;5.364;2022-08-04T18:33:09;99088.38;;;31.11;34.52
48027;BME280;50714;49.208;5.364;2022-08-04T18:43:09;99095.34;;;30.93;35.13
48027;BME280;50714;49.208;5.364;2022-08-04T18:53:10;99109.47;;;30.75;35.23
48027;BME280;50714;49.208;5.364;2022-08-04T19:03:10;99138.41;;;30.50;35.83
48027;BME280;50714;49.208;5.364;2022-08-04T19:13:10;99168.44;;;30.11;36.50
48027;BME280;50714;49.208;5.364;2022-08-04T19:23:11;99192.03;;;29.84;36.92
48027;BME280;50714;49.208;5.364;2022-08-04T19:33:12;99198.22;;;29.61;37.64
48027;BME280;50714;49.208;5.364;2022-08-04T19:43:13;99222.00;;;29.11;39.73
48027;BME280;50714;49.208;5.364;2022-08-04T19:53:13;99229.59;;;28.68;41.36
48027;BME280;50714;49.208;5.364;2022-08-04T20:03:15;99227.00;;;28.45;42.24
48027;BME280;50714;49.208;5.364;2022-08-04T20:13:16;99237.16;;;28.33;43.05
48027;BME280;50714;49.208;5.364;2022-08-04T20:23:16;99261.00;;;28.34;42.45
48027;BME280;50714;49.208;5.364;2022-08-04T20:33:16;99422.00;;;28.60;42.10
48027;BME280;50714;49.208;5.364;2022-08-04T20:43:17;99298.69;;;28.43;46.39
48027;BME280;50714;49.208;5.364;2022-08-04T20:53:19;99118.81;;;27.02;49.93
48027;BME280;50714;49.208;5.364;2022-08-04T21:03:19;99084.81;;;26.17;52.06
48027;BME280;50714;49.208;5.364;2022-08-04T21:13:20;99192.41;;;26.41;51.79
48027;BME280;50714;49.208;5.364;2022-08-04T21:23:20;99222.38;;;26.93;51.66
48027;BME280;50714;49.208;5.364;2022-08-04T21:33:22;99213.94;;;26.98;52.36
48027;BME280;50714;49.208;5.364;2022-08-04T21:43:24;99189.66;;;26.72;52.83
48027;BME280;50714;49.208;5.364;2022-08-04T21:53:24;99164.47;;;26.52;53.97
48027;BME280;50714;49.208;5.364;2022-08-04T22:03:25;99149.66;;;26.56;53.94
48027;BME280;50714;49.208;5.364;2022-08-04T22:13:25;99151.56;;;26.47;55.21
48027;BME280;50714;49.208;5.364;2022-08-04T22:23:26;99173.97;;;26.59;55.08
48027;BME280;50714;49.208;5.364;2022-08-04T22:33:26;99228.06;;;26.65;54.98
48027;BME280;50714;49.208;5.364;2022-08-04T22:43:27;99197.16;;;26.49;55.05
48027;BME280;50714;49.208;5.364;2022-08-04T22:53:28;99177.88;;;26.22;55.60
48027;BME280;50714;49.208;5.364;2022-08-04T23:03:29;99145.34;;;26.19;55.98
48027;BME280;50714;49.208;5.364;2022-08-04T23:13:29;99108.28;;;25.98;56.23
48027;BME280;50714;49.208;5.364;2022-08-04T23:23:31;99103.72;;;25.79;56.17
48027;BME280;50714;49.208;5.364;2022-08-04T23:33:31;99084.88;;;25.45;57.28
48027;BME280;50714;49.208;5.364;2022-08-04T23:43:32;99067.78;;;25.43;57.79
48027;BME280;50714;49.208;5.364;2022-08-04T23:53:32;99079.47;;;25.40;58.01
